createdAt,value
2023-05-24T00:02:21.642Z,6.90
2023-05-24T00:04:49.565Z,7.07
2023-05-24T00:07:16.688Z,7.63
2023-05-24T00:09:43.739Z,7.40
2023-05-24T00:12:10.943Z,7.20
2023-05-24T00:14:38.057Z,7.73
2023-05-24T00:17:05.449Z,7.43
2023-05-24T00:19:32.423Z,7.83
2023-05-24T00:21:59.498Z,7.17
2023-05-24T00:24:26.317Z,7.30
2023-05-24T00:26:53.501Z,6.87
2023-05-24T00:29:20.397Z,7.60
2023-05-24T00:31:47.449Z,7.23
2023-05-24T00:34:14.362Z,7.20
2023-05-24T00:36:41.409Z,6.97
2023-05-24T00:39:08.535Z,7.23
2023-05-24T00:41:35.532Z,7.10
2023-05-24T00:44:02.518Z,6.60
2023-05-24T00:46:32.179Z,7.20
2023-05-24T00:49:01.532Z,6.80
2023-05-24T00:51:29.300Z,7.17
2023-05-24T00:53:56.924Z,6.70
2023-05-24T00:56:24.361Z,6.90
2023-05-24T00:58:54.936Z,6.17
2023-05-24T01:01:28.921Z,6.23
2023-05-24T01:03:57.549Z,6.47
2023-05-24T01:06:27.234Z,6.80
2023-05-24T01:09:09.509Z,6.50
2023-05-24T01:11:54.079Z,6.47
2023-05-24T01:14:50.754Z,7.10
2023-05-24T01:17:52.514Z,7.10
2023-05-24T01:20:22.829Z,6.67
2023-05-24T01:23:05.918Z,6.67
2023-05-24T01:26:01.009Z,6.70
2023-05-24T01:28:28.544Z,7.10
2023-05-24T01:30:56.313Z,6.37
2023-05-24T01:33:23.317Z,7.17
2023-05-24T01:35:50.421Z,6.73
2023-05-24T01:38:17.357Z,6.63
2023-05-24T01:40:47.640Z,6.60
2023-05-24T01:43:42.586Z,7.07
2023-05-24T01:46:25.556Z,6.73
2023-05-24T01:49:19.279Z,6.87
2023-05-24T01:52:03.591Z,6.50
2023-05-24T01:54:36.712Z,6.60
2023-05-24T01:57:07.709Z,6.80
2023-05-24T01:59:36.269Z,6.53
2023-05-24T02:02:03.450Z,6.60
2023-05-24T02:04:30.938Z,6.63
2023-05-24T02:07:01.103Z,6.33
2023-05-24T02:09:28.196Z,6.70
2023-05-24T02:11:55.450Z,6.73
2023-05-24T02:14:22.416Z,6.40
2023-05-24T02:16:50.917Z,6.80
2023-05-24T02:19:21.546Z,6.63
2023-05-24T02:21:48.714Z,6.60
2023-05-24T02:24:16.610Z,6.27
2023-05-24T02:26:43.608Z,6.57
2023-05-24T02:29:10.848Z,6.70
2023-05-24T02:31:37.947Z,6.60
2023-05-24T02:34:04.854Z,6.57
2023-05-24T02:36:32.773Z,6.37
2023-05-24T02:38:59.972Z,7.03
2023-05-24T02:41:27.056Z,6.47
2023-05-24T02:43:54.097Z,6.37
2023-05-24T02:46:21.221Z,6.60
2023-05-24T02:48:49.887Z,6.47
2023-05-24T02:51:17.163Z,6.33
2023-05-24T02:53:45.433Z,6.50
2023-05-24T02:56:14.052Z,6.53
2023-05-24T02:58:41.260Z,6.40
2023-05-24T03:01:08.743Z,6.10
2023-05-24T03:03:35.864Z,6.50
2023-05-24T03:06:03.401Z,6.37
2023-05-24T03:08:30.339Z,6.10
2023-05-24T03:10:57.375Z,6.27
2023-05-24T03:13:24.328Z,6.43
2023-05-24T03:15:51.264Z,6.30
2023-05-24T03:18:18.722Z,5.80
2023-05-24T03:20:45.916Z,6.10
2023-05-24T03:23:12.822Z,5.93
2023-05-24T03:25:39.792Z,5.90
2023-05-24T03:28:07.310Z,6.17
2023-05-24T03:30:37.668Z,5.80
2023-05-24T03:33:05.033Z,5.93
2023-05-24T03:35:32.128Z,6.27
2023-05-24T03:37:59.033Z,6.23
2023-05-24T03:40:26.083Z,6.00
2023-05-24T03:42:53.429Z,6.17
2023-05-24T03:45:34.657Z,5.93
2023-05-24T03:48:06.173Z,5.73
2023-05-24T03:50:38.513Z,6.10
2023-05-24T03:53:05.847Z,5.83
2023-05-24T03:55:32.712Z,5.97
2023-05-24T03:57:59.645Z,5.80
2023-05-24T04:00:26.534Z,5.87
2023-05-24T04:02:53.687Z,5.93
2023-05-24T04:05:20.694Z,5.63
2023-05-24T04:07:47.930Z,6.13
2023-05-24T04:10:14.911Z,6.13
2023-05-24T04:12:42.139Z,5.50
2023-05-24T04:15:14.847Z,5.80
2023-05-24T04:17:43.821Z,5.63
2023-05-24T04:20:12.413Z,6.70
2023-05-24T04:22:39.886Z,6.43
2023-05-24T04:25:07.842Z,5.90
2023-05-24T04:27:36.528Z,6.10
2023-05-24T04:30:06.057Z,6.10
2023-05-24T04:32:33.210Z,5.70
2023-05-24T04:35:02.721Z,5.70
2023-05-24T04:37:31.802Z,5.80
2023-05-24T04:39:59.852Z,5.63
2023-05-24T04:42:32.571Z,5.87
2023-05-24T04:45:00.229Z,5.73
2023-05-24T04:47:27.238Z,5.63
2023-05-24T04:49:54.458Z,5.97
2023-05-24T04:52:21.477Z,5.70
2023-05-24T04:54:49.588Z,6.20
2023-05-24T04:57:17.378Z,6.23
2023-05-24T04:59:44.471Z,5.60
2023-05-24T05:02:11.479Z,5.83
2023-05-24T05:04:38.586Z,5.63
2023-05-24T05:07:05.791Z,5.47
2023-05-24T05:09:32.769Z,6.07
2023-05-24T05:11:59.924Z,5.57
2023-05-24T05:14:26.953Z,5.67
2023-05-24T05:16:54.011Z,5.90
2023-05-24T05:19:21.356Z,5.53
2023-05-24T05:21:48.314Z,5.87
2023-05-24T05:24:16.977Z,6.00
2023-05-24T05:26:44.024Z,5.83
2023-05-24T05:29:10.993Z,5.90
2023-05-24T05:31:38.041Z,5.57
2023-05-24T05:34:05.226Z,5.73
2023-05-24T05:36:32.409Z,5.60
2023-05-24T05:38:59.463Z,5.83
2023-05-24T05:41:26.495Z,5.80
2023-05-24T05:43:53.466Z,5.90
2023-05-24T05:46:22.441Z,5.87
2023-05-24T05:48:49.426Z,5.60
2023-05-24T05:51:16.429Z,6.03
2023-05-24T05:53:43.354Z,5.63
2023-05-24T05:56:10.244Z,5.23
2023-05-24T05:58:39.006Z,5.80
2023-05-24T06:01:05.986Z,5.83
2023-05-24T06:03:32.981Z,5.73
2023-05-24T06:06:00.032Z,6.00
2023-05-24T06:08:27.517Z,5.33
2023-05-24T06:10:54.369Z,6.13
2023-05-24T06:13:30.112Z,5.43
2023-05-24T06:16:01.448Z,5.07
2023-05-24T06:18:34.705Z,4.97
2023-05-24T06:21:01.709Z,5.47
2023-05-24T06:23:33.506Z,5.20
2023-05-24T06:26:01.642Z,5.43
2023-05-24T06:28:28.591Z,5.00
2023-05-24T06:30:55.582Z,5.07
2023-05-24T06:33:22.652Z,5.68
2023-05-24T06:35:49.656Z,5.73
2023-05-24T06:38:18.294Z,5.57
2023-05-24T06:40:45.511Z,6.18
2023-05-24T06:43:12.407Z,5.20
2023-05-24T06:45:39.347Z,5.63
2023-05-24T06:48:06.572Z,5.27
2023-05-24T06:50:33.627Z,5.43
2023-05-24T06:53:00.493Z,5.33
2023-05-24T06:55:30.435Z,5.33
2023-05-24T06:57:57.909Z,5.63
2023-05-24T07:00:24.899Z,6.30
2023-05-24T07:02:51.874Z,5.60
2023-05-24T07:05:19.180Z,5.30
2023-05-24T07:07:49.522Z,5.30
2023-05-24T07:10:16.733Z,5.57
2023-05-24T07:12:43.650Z,6.00
2023-05-24T07:15:10.788Z,5.80
2023-05-24T07:17:37.746Z,5.57
2023-05-24T07:20:10.544Z,6.50
2023-05-24T07:22:37.787Z,5.20
2023-05-24T07:25:05.547Z,5.77
2023-05-24T07:27:32.413Z,5.40
2023-05-24T07:29:59.346Z,5.60
2023-05-24T07:32:26.992Z,5.43
2023-05-24T07:34:54.097Z,5.43
2023-05-24T07:37:24.123Z,5.63
2023-05-24T07:39:52.215Z,5.70
2023-05-24T07:42:19.554Z,5.43
2023-05-24T07:44:47.262Z,5.77
2023-05-24T07:47:14.123Z,5.53
2023-05-24T07:49:41.118Z,5.57
2023-05-24T07:52:17.207Z,5.83
2023-05-24T07:54:44.116Z,5.90
2023-05-24T07:57:11.011Z,5.47
2023-05-24T07:59:37.893Z,5.60
2023-05-24T08:02:05.761Z,5.73
2023-05-24T08:04:35.891Z,6.10
2023-05-24T08:07:03.821Z,5.90
2023-05-24T08:09:33.880Z,6.03
2023-05-24T08:12:01.290Z,6.10
2023-05-24T08:14:28.384Z,5.82
2023-05-24T08:16:55.372Z,6.28
2023-05-24T08:19:22.331Z,6.20
2023-05-24T08:21:49.786Z,6.22
2023-05-24T08:24:17.129Z,6.03
2023-05-24T08:26:45.304Z,6.70
2023-05-24T08:29:12.471Z,6.07
2023-05-24T08:31:39.493Z,6.22
2023-05-24T08:34:06.644Z,6.07
2023-05-24T08:36:33.524Z,5.72
2023-05-24T08:39:00.500Z,5.63
2023-05-24T08:41:28.722Z,5.85
2023-05-24T08:44:00.096Z,6.22
2023-05-24T08:46:27.960Z,5.80
2023-05-24T08:48:57.822Z,5.70
2023-05-24T08:51:24.851Z,5.60
2023-05-24T08:53:52.551Z,5.25
2023-05-24T08:56:19.529Z,5.07
2023-05-24T08:58:47.375Z,5.85
2023-05-24T09:01:16.674Z,5.47
2023-05-24T09:03:46.297Z,5.55
2023-05-24T09:06:16.205Z,5.05
2023-05-24T09:08:44.005Z,5.43
2023-05-24T09:11:12.187Z,5.25
2023-05-24T09:13:39.918Z,5.55
2023-05-24T09:16:07.279Z,5.07
2023-05-24T09:18:34.579Z,5.10
2023-05-24T09:21:01.419Z,5.13
2023-05-24T09:23:30.893Z,4.97
2023-05-24T09:25:57.817Z,4.90
2023-05-24T09:28:25.122Z,4.97
2023-05-24T09:30:59.891Z,4.80
2023-05-24T09:33:34.576Z,5.45
2023-05-24T09:36:04.611Z,5.45
2023-05-24T09:38:31.699Z,5.32
2023-05-24T09:41:06.566Z,5.05
2023-05-24T09:43:36.290Z,4.97
2023-05-24T09:46:04.850Z,5.43
2023-05-24T09:48:32.249Z,5.25
2023-05-24T09:51:04.198Z,5.75
2023-05-24T09:53:34.014Z,5.55
2023-05-24T09:56:04.040Z,5.60
2023-05-24T09:58:33.580Z,5.53
2023-05-24T10:01:08.899Z,5.57
2023-05-24T10:03:38.594Z,5.22
2023-05-24T10:06:08.014Z,7.00
2023-05-24T10:08:36.240Z,7.13
2023-05-24T10:11:04.869Z,7.03
2023-05-24T10:13:36.790Z,7.60
2023-05-24T10:16:04.595Z,7.00
2023-05-24T10:18:31.772Z,7.03
2023-05-24T10:21:00.857Z,6.57
2023-05-24T10:23:31.530Z,7.15
2023-05-24T10:26:09.860Z,7.50
2023-05-24T10:28:42.885Z,7.78
2023-05-24T10:31:16.105Z,7.40
2023-05-24T10:33:45.596Z,7.10
2023-05-24T10:36:14.811Z,7.57
2023-05-24T10:38:41.979Z,7.70
2023-05-24T10:41:09.551Z,7.50
2023-05-24T10:43:37.987Z,7.07
2023-05-24T10:46:08.508Z,7.38
2023-05-24T10:48:37.226Z,7.15
2023-05-24T10:51:33.775Z,7.28
2023-05-24T10:54:12.987Z,7.47
2023-05-24T10:56:48.593Z,7.07
2023-05-24T10:59:37.406Z,7.20
2023-05-24T11:02:16.297Z,6.93
2023-05-24T11:04:47.284Z,7.30
2023-05-24T11:07:15.485Z,7.38
2023-05-24T11:09:52.972Z,7.43
2023-05-24T11:12:23.755Z,7.57
2023-05-24T11:14:52.589Z,6.88
2023-05-24T11:17:22.420Z,7.18
2023-05-24T11:19:56.807Z,7.50
2023-05-24T11:22:27.081Z,7.13
2023-05-24T11:24:54.197Z,6.95
2023-05-24T11:27:21.767Z,7.22
2023-05-24T11:29:49.174Z,7.30
2023-05-24T11:32:18.374Z,6.63
2023-05-24T11:34:47.619Z,6.43
2023-05-24T11:37:17.560Z,6.70
2023-05-24T11:39:51.130Z,7.13
2023-05-24T11:42:18.262Z,6.82
2023-05-24T11:44:48.334Z,7.90
2023-05-24T11:47:15.433Z,6.90
2023-05-24T11:49:42.428Z,6.80
2023-05-24T11:52:09.385Z,6.80
2023-05-24T11:54:38.657Z,6.97
2023-05-24T11:57:05.956Z,6.25
2023-05-24T11:59:33.217Z,6.60
2023-05-24T12:02:03.932Z,7.45
2023-05-24T12:04:32.527Z,6.55
2023-05-24T12:06:59.768Z,6.93
2023-05-24T12:09:27.751Z,6.22
2023-05-24T12:11:55.188Z,5.97
2023-05-24T12:14:31.303Z,6.10
2023-05-24T12:16:59.279Z,7.10
2023-05-24T12:19:34.080Z,6.60
2023-05-24T12:22:06.705Z,5.97
2023-05-24T12:24:34.385Z,6.18
2023-05-24T12:27:03.423Z,6.00
2023-05-24T12:29:35.447Z,6.28
2023-05-24T12:32:03.114Z,5.68
2023-05-24T12:34:30.230Z,6.05
2023-05-24T12:36:57.194Z,5.97
2023-05-24T12:39:32.412Z,5.75
2023-05-24T12:42:01.800Z,5.32
2023-05-24T12:44:32.348Z,6.03
2023-05-24T12:47:01.634Z,5.93
2023-05-24T12:49:28.897Z,5.50
2023-05-24T12:51:57.230Z,5.70
2023-05-24T12:54:28.791Z,4.97
2023-05-24T12:56:57.850Z,4.72
2023-05-24T12:59:26.022Z,4.35
2023-05-24T13:01:53.786Z,4.90
2023-05-24T13:04:23.328Z,5.05
2023-05-24T13:06:50.587Z,4.95
2023-05-24T13:09:22.550Z,5.13
2023-05-24T13:11:50.053Z,4.80
2023-05-24T13:14:18.225Z,5.18
2023-05-24T13:16:46.100Z,4.93
2023-05-24T13:19:13.429Z,4.70
2023-05-24T13:21:40.840Z,4.50
2023-05-24T13:24:08.866Z,4.78
2023-05-24T13:26:39.016Z,4.90
2023-05-24T13:31:40.990Z,5.72
2023-05-24T13:34:13.469Z,5.05
2023-05-24T13:36:45.275Z,5.10
2023-05-24T13:39:18.374Z,5.00
2023-05-24T13:41:46.024Z,5.22
2023-05-24T13:44:14.584Z,4.97
2023-05-24T13:46:42.592Z,5.15
2023-05-24T13:49:11.151Z,5.15
2023-05-24T13:51:38.897Z,5.18
2023-05-24T13:54:07.876Z,5.32
2023-05-24T13:56:35.789Z,4.57
2023-05-24T13:59:04.663Z,5.25
2023-05-24T14:01:32.316Z,5.10
2023-05-24T14:04:01.477Z,4.90
2023-05-24T14:06:28.875Z,5.40
2023-05-24T14:08:56.288Z,5.38
2023-05-24T14:11:24.833Z,5.35
2023-05-24T14:16:22.036Z,5.30
2023-05-24T14:18:50.300Z,5.43
2023-05-24T14:21:18.801Z,5.43
2023-05-24T14:23:45.844Z,5.63
2023-05-24T14:26:16.162Z,5.60
2023-05-24T14:28:43.186Z,5.68
2023-05-24T14:31:10.175Z,5.72
2023-05-24T14:33:38.546Z,5.50
2023-05-24T14:36:05.810Z,5.00
2023-05-24T14:38:32.910Z,5.22
2023-05-24T14:41:01.761Z,5.30
2023-05-24T14:43:28.704Z,5.32
2023-05-24T14:45:55.667Z,5.40
2023-05-24T14:48:25.757Z,5.30
2023-05-24T14:50:56.376Z,5.15
2023-05-24T14:53:23.549Z,5.28
2023-05-24T14:55:50.768Z,5.00
2023-05-24T14:58:18.036Z,4.93
2023-05-24T15:00:45.318Z,5.00
2023-05-24T15:03:27.291Z,4.93
2023-05-24T15:06:05.719Z,5.13
2023-05-24T15:08:33.828Z,5.38
2023-05-24T15:11:01.620Z,5.65
2023-05-24T15:13:28.720Z,5.70
2023-05-24T15:15:57.706Z,6.07
2023-05-24T15:18:25.722Z,5.75
2023-05-24T15:20:52.752Z,5.28
2023-05-24T15:23:21.437Z,5.38
2023-05-24T15:25:49.346Z,5.90
2023-05-24T15:28:19.750Z,5.72
2023-05-24T15:30:47.316Z,5.95
2023-05-24T15:33:14.755Z,6.50
2023-05-24T15:35:42.350Z,6.40
2023-05-24T15:38:09.349Z,5.82
2023-05-24T15:40:38.684Z,6.25
2023-05-24T15:43:05.938Z,6.00
2023-05-24T15:45:33.970Z,6.68
2023-05-24T15:48:04.625Z,9.13
2023-05-24T15:50:50.613Z,11.48
2023-05-24T15:53:21.683Z,12.85
2023-05-24T15:55:49.258Z,13.38
2023-05-24T15:58:16.271Z,11.77
2023-05-24T16:00:43.621Z,11.10
2023-05-24T16:03:15.451Z,11.52
2023-05-24T16:05:42.915Z,12.73
2023-05-24T16:08:10.015Z,11.90
2023-05-24T16:10:37.047Z,13.00
2023-05-24T16:13:03.971Z,12.33
2023-05-24T16:15:33.299Z,12.87
2023-05-24T16:18:00.354Z,12.52
2023-05-24T16:20:27.698Z,13.07
2023-05-24T16:22:54.797Z,13.70
2023-05-24T16:25:21.872Z,12.67
2023-05-24T16:27:48.869Z,13.27
2023-05-24T16:30:16.339Z,13.33
2023-05-24T16:32:45.494Z,13.33
2023-05-24T16:35:12.762Z,13.60
2023-05-24T16:37:40.203Z,12.43
2023-05-24T16:40:10.444Z,12.80
2023-05-24T16:42:37.484Z,12.93
2023-05-24T16:45:05.228Z,13.27
2023-05-24T16:47:32.528Z,13.47
2023-05-24T16:49:59.534Z,12.20
2023-05-24T16:52:26.420Z,11.87
2023-05-24T16:54:53.565Z,12.03
2023-05-24T16:57:20.728Z,12.00
2023-05-24T16:59:50.613Z,11.23
2023-05-24T17:02:17.817Z,11.10
2023-05-24T17:04:44.714Z,12.37
2023-05-24T17:07:11.744Z,12.30
2023-05-24T17:09:38.684Z,11.97
2023-05-24T17:12:06.247Z,11.83
2023-05-24T17:14:33.156Z,12.23
2023-05-24T17:17:01.457Z,12.30
2023-05-24T17:19:28.676Z,12.20
2023-05-24T17:21:55.608Z,11.77
2023-05-24T17:24:25.404Z,11.87
2023-05-24T17:26:52.604Z,12.23
2023-05-24T17:29:19.491Z,12.17
2023-05-24T17:31:47.154Z,14.30
2023-05-24T17:34:16.267Z,11.93
2023-05-24T17:36:43.209Z,11.50
2023-05-24T17:39:10.556Z,11.30
2023-05-24T17:41:38.773Z,12.93
2023-05-24T17:44:06.049Z,11.37
2023-05-24T17:46:35.682Z,11.60
2023-05-24T17:49:04.533Z,11.33
2023-05-24T17:51:31.885Z,12.77
2023-05-24T17:53:59.102Z,11.20
2023-05-24T17:56:26.022Z,11.43
2023-05-24T17:58:52.936Z,12.87
2023-05-24T18:01:19.969Z,11.30
2023-05-24T18:03:47.307Z,12.33
2023-05-24T18:06:14.487Z,11.93
2023-05-24T18:08:43.999Z,11.50
2023-05-24T18:11:13.965Z,12.37
2023-05-24T18:13:42.198Z,12.13
2023-05-24T18:16:11.739Z,11.80
2023-05-24T18:18:39.245Z,13.27
2023-05-24T18:21:06.676Z,12.77
2023-05-24T18:23:37.515Z,13.20
2023-05-24T18:26:09.648Z,12.40
2023-05-24T18:28:37.691Z,12.27
2023-05-24T18:31:08.868Z,12.80
2023-05-24T18:33:39.307Z,11.90
2023-05-24T18:36:06.808Z,12.27
2023-05-24T18:38:34.905Z,12.40
2023-05-24T18:41:06.000Z,12.97
2023-05-24T18:43:33.595Z,13.23
2023-05-24T18:46:01.060Z,13.10
2023-05-24T18:48:28.170Z,12.70
2023-05-24T18:50:55.194Z,13.03
2023-05-24T18:53:22.125Z,12.87
2023-05-24T18:55:49.017Z,12.37
2023-05-24T18:58:16.101Z,13.03
2023-05-24T19:00:43.134Z,13.20
2023-05-24T19:03:12.153Z,12.43
2023-05-24T19:05:42.622Z,13.43
2023-05-24T19:08:11.044Z,13.20
2023-05-24T19:10:38.133Z,13.00
2023-05-24T19:13:07.597Z,12.90
2023-05-24T19:15:37.795Z,12.73
2023-05-24T19:18:05.277Z,12.60
2023-05-24T19:20:32.176Z,13.07
2023-05-24T19:22:59.371Z,13.50
2023-05-24T19:25:26.457Z,14.07
2023-05-24T19:30:23.302Z,13.47
2023-05-24T19:32:50.267Z,13.83
2023-05-24T19:35:17.354Z,14.10
2023-05-24T19:37:44.214Z,13.57
2023-05-24T19:40:11.698Z,14.23
2023-05-24T19:42:38.632Z,14.37
2023-05-24T19:45:06.348Z,13.30
2023-05-24T19:47:36.220Z,14.03
2023-05-24T19:50:03.315Z,13.43
2023-05-24T19:52:30.265Z,14.47
2023-05-24T19:54:57.366Z,13.43
2023-05-24T19:57:24.337Z,13.30
2023-05-24T19:59:51.223Z,13.37
2023-05-24T20:02:18.290Z,13.97
2023-05-24T20:04:45.238Z,13.97
2023-05-24T20:07:12.222Z,13.90
2023-05-24T20:09:39.530Z,14.20
2023-05-24T20:12:06.695Z,13.87
2023-05-24T20:14:33.792Z,14.90
2023-05-24T20:17:01.305Z,14.93
2023-05-24T20:19:28.464Z,15.67
2023-05-24T20:21:55.593Z,15.10
2023-05-24T20:24:22.514Z,14.10
2023-05-24T20:26:49.354Z,14.70
2023-05-24T20:29:16.367Z,14.43
2023-05-24T20:31:43.261Z,14.77
2023-05-24T20:34:10.151Z,15.87
2023-05-24T20:36:37.032Z,15.10
2023-05-24T20:39:04.194Z,15.37
2023-05-24T20:41:31.346Z,15.27
2023-05-24T20:43:58.157Z,14.80
2023-05-24T20:46:25.462Z,15.30
2023-05-24T20:48:53.998Z,14.97
2023-05-24T20:51:23.071Z,15.97
2023-05-24T20:53:52.185Z,16.27
2023-05-24T20:56:20.382Z,15.50
2023-05-24T20:58:49.221Z,16.50
2023-05-24T21:01:16.751Z,16.07
2023-05-24T21:03:43.744Z,16.37
2023-05-24T21:06:10.864Z,15.80
2023-05-24T21:08:38.507Z,16.60
2023-05-24T21:11:05.467Z,16.93
2023-05-24T21:13:32.302Z,16.77
2023-05-24T21:15:59.393Z,17.13
2023-05-24T21:18:26.264Z,16.33
2023-05-24T21:20:53.070Z,17.40
2023-05-24T21:23:19.979Z,16.20
2023-05-24T21:25:46.897Z,16.80
2023-05-24T21:28:14.667Z,16.03
2023-05-24T21:30:41.591Z,17.00
2023-05-24T21:33:08.961Z,16.27
2023-05-24T21:35:37.460Z,16.27
2023-05-24T21:38:04.544Z,16.93
2023-05-24T21:40:31.441Z,16.67
2023-05-24T21:42:58.329Z,16.50
2023-05-24T21:45:25.320Z,16.53
2023-05-24T21:47:52.229Z,16.47
2023-05-24T21:50:19.284Z,15.57
2023-05-24T21:52:46.155Z,16.80
2023-05-24T21:55:13.040Z,16.60
2023-05-24T21:57:39.928Z,17.07
2023-05-24T22:00:08.658Z,16.63
2023-05-24T22:02:35.798Z,18.57
2023-05-24T22:05:05.259Z,16.43
2023-05-24T22:07:32.334Z,17.40
2023-05-24T22:09:59.456Z,16.17
2023-05-24T22:12:26.532Z,17.77
2023-05-24T22:14:53.466Z,17.80
2023-05-24T22:17:22.240Z,17.40
2023-05-24T22:19:49.538Z,17.20
2023-05-24T22:22:19.562Z,17.83
2023-05-24T22:24:47.339Z,17.97
2023-05-24T22:27:14.307Z,17.23
2023-05-24T22:29:41.389Z,17.57
2023-05-24T22:32:08.539Z,17.37
2023-05-24T22:34:35.656Z,17.10
2023-05-24T22:37:02.552Z,16.90
2023-05-24T22:39:29.421Z,18.90
2023-05-24T22:41:56.717Z,18.20
2023-05-24T22:44:23.693Z,17.60
2023-05-24T22:46:53.949Z,17.33
2023-05-24T22:49:20.934Z,18.23
2023-05-24T22:51:50.684Z,17.57
2023-05-24T22:54:17.964Z,19.23
2023-05-24T22:56:46.083Z,18.37
2023-05-24T22:59:13.533Z,18.17
2023-05-24T23:01:40.657Z,18.50
2023-05-24T23:04:20.536Z,18.67
2023-05-24T23:06:53.550Z,19.53
2023-05-24T23:09:34.919Z,18.63
2023-05-24T23:12:08.200Z,19.50
2023-05-24T23:14:39.997Z,19.73
2023-05-24T23:17:10.392Z,18.73
2023-05-24T23:19:42.477Z,20.30
2023-05-24T23:22:14.057Z,19.53
2023-05-24T23:25:37.354Z,20.20
2023-05-24T23:28:04.608Z,21.10
2023-05-24T23:30:31.681Z,21.63
2023-05-24T23:32:59.551Z,22.33
2023-05-24T23:35:26.558Z,21.60
2023-05-24T23:37:53.878Z,22.13
2023-05-24T23:40:21.264Z,22.53
2023-05-24T23:42:49.295Z,21.60
2023-05-24T23:45:16.599Z,20.70
2023-05-24T23:47:43.959Z,21.57
2023-05-24T23:50:11.530Z,20.50
2023-05-24T23:52:38.596Z,21.53
2023-05-24T23:55:06.432Z,21.03
2023-05-24T23:57:33.558Z,21.20
